Time;durP1;ratioP1;P1;durP2;ratioP2;P2;SDS_P1;SDS_P2;PMS_P1;PMS_P2;Temp;Humidity;BMP_temperature;BMP_pressure;BME280_temperature;BME280_humidity;BME280_pressure;Samples;Min_cycle;Max_cycle;Signal;HPM_P1;HPM_P2
2021/04/19 00:00:52;;;;;;;39.23;35.53;;;10.80;99.90;;;;;;5136141;27;20477;-64
2021/04/19 00:03:20;;;;;;;31.50;26.80;;;10.80;99.90;;;;;;5127714;27;20540;-64
2021/04/19 00:05:46;;;;;;;65.60;60.83;;;10.70;99.90;;;;;;5115474;28;20958;-65
2021/04/19 00:08:13;;;;;;;52.67;48.23;;;10.70;99.90;;;;;;5122102;27;20456;-65
2021/04/19 00:10:39;;;;;;;38.90;35.30;;;10.60;99.90;;;;;;5136202;27;20444;-64
2021/04/19 00:13:05;;;;;;;39.40;35.67;;;10.60;99.90;;;;;;5130450;27;20952;-64
2021/04/19 00:15:32;;;;;;;85.33;79.40;;;10.60;99.90;;;;;;5119093;27;20512;-64
2021/04/19 00:17:59;;;;;;;76.93;71.17;;;10.40;99.90;;;;;;5135078;27;20460;-63
2021/04/19 00:20:26;;;;;;;47.73;43.70;;;10.40;99.90;;;;;;5135858;27;20519;-64
2021/04/19 00:22:53;;;;;;;59.53;54.53;;;10.30;99.90;;;;;;5132503;27;20903;-63
2021/04/19 00:25:19;;;;;;;55.40;50.67;;;10.30;99.90;;;;;;5130925;27;20462;-63
2021/04/19 00:27:46;;;;;;;42.33;38.17;;;10.20;99.90;;;;;;5135301;27;20478;-65
2021/04/19 00:30:13;;;;;;;39.90;35.90;;;10.20;99.90;;;;;;5134970;27;20449;-64
2021/04/19 00:32:39;;;;;;;66.33;61.13;;;10.20;99.90;;;;;;5135569;27;20531;-63
2021/04/19 00:35:07;;;;;;;69.97;64.47;;;10.20;99.90;;;;;;5135442;27;20559;-65
2021/04/19 00:37:35;;;;;;;40.53;36.63;;;10.20;99.90;;;;;;5135318;27;20930;-65
2021/04/19 00:40:05;;;;;;;46.47;42.17;;;10.20;99.90;;;;;;5116073;27;20540;-65
2021/04/19 00:42:31;;;;;;;68.43;62.90;;;10.20;99.90;;;;;;5117864;27;20451;-63
2021/04/19 00:44:58;;;;;;;56.40;51.33;;;10.20;99.90;;;;;;5135621;27;20950;-63
2021/04/19 00:47:25;;;;;;;58.13;53.00;;;10.20;99.90;;;;;;5133259;27;20546;-64
2021/04/19 00:49:51;;;;;;;77.90;72.47;;;10.20;99.90;;;;;;5133381;27;20451;-63
2021/04/19 00:52:19;;;;;;;83.67;77.40;;;10.30;99.90;;;;;;5126814;27;20462;-64
2021/04/19 00:54:46;;;;;;;74.67;68.70;;;10.30;99.90;;;;;;5133847;27;20484;-64
2021/04/19 00:57:12;;;;;;;106.40;99.20;;;10.40;99.90;;;;;;5134499;27;20449;-63
2021/04/19 00:59:39;;;;;;;70.10;64.73;;;10.40;99.90;;;;;;5116150;27;20445;-64
2021/04/19 01:02:06;;;;;;;61.13;56.37;;;10.50;99.90;;;;;;5119944;27;20783;-64
2021/04/19 01:04:33;;;;;;;57.80;53.17;;;10.50;99.90;;;;;;5135222;27;20556;-63
2021/04/19 01:07:00;;;;;;;72.67;67.37;;;10.50;99.90;;;;;;5132399;27;20451;-64
2021/04/19 01:09:27;;;;;;;89.33;83.27;;;10.60;99.90;;;;;;5128299;27;20914;-63
2021/04/19 01:12:07;;;;;;;86.97;80.80;;;10.60;99.90;;;;;;5123803;27;20445;-64
2021/04/19 01:14:33;;;;;;;105.57;98.30;;;10.60;99.90;;;;;;5131234;27;20490;-63
2021/04/19 01:17:00;;;;;;;68.70;63.17;;;10.60;99.90;;;;;;5121961;27;20962;-63
2021/04/19 01:19:26;;;;;;;107.80;100.70;;;10.70;99.90;;;;;;5114332;28;20457;-63
2021/04/19 01:21:53;;;;;;;85.50;79.00;;;10.70;99.90;;;;;;5132953;27;20445;-63
2021/04/19 01:24:20;;;;;;;136.83;128.87;;;10.70;99.90;;;;;;5134638;27;20452;-64
2021/04/19 01:26:46;;;;;;;153.07;144.23;;;10.70;99.90;;;;;;5132795;27;20448;-64
2021/04/19 01:29:12;;;;;;;126.37;118.27;;;10.70;99.90;;;;;;5134779;27;20451;-64
2021/04/19 01:31:39;;;;;;;133.63;125.33;;;10.80;99.90;;;;;;5121844;27;20873;-63
2021/04/19 01:34:05;;;;;;;121.17;113.07;;;10.80;99.90;;;;;;5113743;28;20473;-64
2021/04/19 01:36:31;;;;;;;103.07;95.90;;;10.80;99.90;;;;;;5128019;27;20606;-64
2021/04/19 01:38:59;;;;;;;97.40;90.90;;;10.80;99.90;;;;;;5133785;27;20957;-63
2021/04/19 01:41:29;;;;;;;147.07;138.27;;;10.90;99.90;;;;;;5120324;27;20872;-64
2021/04/19 01:43:55;;;;;;;162.57;153.07;;;10.90;99.90;;;;;;5114109;28;20453;-64
2021/04/19 01:46:22;;;;;;;111.30;103.77;;;10.90;99.90;;;;;;5126230;27;20535;-64
2021/04/19 01:48:49;;;;;;;131.87;123.37;;;10.90;99.90;;;;;;5134245;27;20530;-63
2021/04/19 01:51:15;;;;;;;132.23;124.03;;;10.90;99.90;;;;;;5133151;27;20444;-64
2021/04/19 01:53:41;;;;;;;136.57;127.80;;;10.90;99.90;;;;;;5130089;27;20453;-63
2021/04/19 01:56:09;;;;;;;154.03;144.63;;;10.90;99.90;;;;;;5123841;27;20453;-64
2021/04/19 01:58:36;;;;;;;110.03;102.73;;;10.90;99.90;;;;;;5133447;27;20440;-64
2021/04/19 02:01:03;;;;;;;183.30;171.93;;;10.80;99.90;;;;;;5132225;27;20552;-64
2021/04/19 02:03:42;;;;;;;126.07;117.13;;;10.90;99.90;;;;;;5132758;27;20452;-63
2021/04/19 02:06:17;;;;;;;116.87;108.97;;;10.80;99.90;;;;;;5123556;27;20508;-64
2021/04/19 02:08:53;;;;;;;153.17;142.70;;;10.80;99.90;;;;;;5133181;27;20456;-63
2021/04/19 02:11:29;;;;;;;105.90;98.50;;;10.70;99.90;;;;;;5133938;27;20523;-63
2021/04/19 02:14:08;;;;;;;122.83;114.03;;;10.70;99.90;;;;;;5114521;27;20469;-63
2021/04/19 02:16:42;;;;;;;128.77;119.70;;;10.70;99.90;;;;;;5126853;27;20470;-64
2021/04/19 02:19:14;;;;;;;108.17;100.13;;;10.70;99.90;;;;;;5133636;27;20807;-64
2021/04/19 02:21:46;;;;;;;138.70;129.13;;;10.60;99.90;;;;;;5133731;27;20502;-64
2021/04/19 02:24:16;;;;;;;132.80;123.30;;;10.60;99.90;;;;;;5121558;27;20587;-64
2021/04/19 02:26:48;;;;;;;69.90;63.53;;;10.60;99.90;;;;;;5132962;27;20444;-63
2021/04/19 02:29:17;;;;;;;91.17;83.60;;;10.40;99.90;;;;;;5133140;27;20452;-64
2021/04/19 02:31:49;;;;;;;95.20;87.67;;;10.30;99.90;;;;;;5133355;27;20450;-63
2021/04/19 02:34:19;;;;;;;64.73;59.00;;;10.30;99.90;;;;;;5113727;27;20571;-64
2021/04/19 02:36:49;;;;;;;137.83;128.10;;;10.20;99.90;;;;;;5127678;27;20528;-64
2021/04/19 02:39:17;;;;;;;84.03;76.93;;;10.30;99.90;;;;;;5132647;27;20509;-63
2021/04/19 02:41:48;;;;;;;108.10;99.90;;;10.30;99.90;;;;;;5133124;27;20506;-63
2021/04/19 02:44:17;;;;;;;83.30;75.33;;;10.30;99.90;;;;;;5121322;27;20518;-63
2021/04/19 02:46:44;;;;;;;130.00;121.00;;;10.30;99.90;;;;;;5127220;27;20467;-63
2021/04/19 02:49:12;;;;;;;102.43;93.60;;;10.30;99.90;;;;;;5132811;27;21074;-63
2021/04/19 02:51:41;;;;;;;136.63;126.57;;;10.30;99.90;;;;;;5133177;27;20961;-63
2021/04/19 02:54:09;;;;;;;97.40;89.03;;;10.30;99.90;;;;;;5116373;27;20503;-64
2021/04/19 02:56:36;;;;;;;118.70;109.70;;;10.30;99.90;;;;;;5126099;27;20468;-64
2021/04/19 02:59:07;;;;;;;114.10;105.00;;;10.20;99.90;;;;;;5133258;28;20832;-63
2021/04/19 03:01:36;;;;;;;106.30;97.27;;;10.30;99.90;;;;;;5132428;28;20873;-63
2021/04/19 03:04:08;;;;;;;176.30;163.47;;;10.30;99.90;;;;;;5133279;28;20484;-63
2021/04/19 03:06:38;;;;;;;82.70;74.77;;;10.20;99.90;;;;;;5131929;28;20448;-63
2021/04/19 03:09:06;;;;;;;171.50;158.77;;;10.20;99.90;;;;;;5133113;28;21040;-63
2021/04/19 03:11:35;;;;;;;180.60;167.17;;;10.10;99.90;;;;;;5121207;28;20448;-64
2021/04/19 03:14:06;;;;;;;101.97;92.20;;;10.20;99.90;;;;;;5117460;28;20473;-63
2021/04/19 03:16:35;;;;;;;117.47;106.57;;;10.10;99.90;;;;;;5121409;28;20837;-63
2021/04/19 03:19:04;;;;;;;130.17;118.63;;;10.10;99.90;;;;;;5112146;28;20536;-63
2021/04/19 03:21:34;;;;;;;140.40;128.43;;;10.10;99.90;;;;;;5122487;28;20439;-63
2021/04/19 03:24:01;;;;;;;161.27;147.93;;;10.00;99.90;;;;;;5132570;28;20857;-62
2021/04/19 03:26:32;;;;;;;152.13;139.30;;;10.10;99.90;;;;;;5128798;28;20441;-63
2021/04/19 03:29:00;;;;;;;160.23;147.27;;;10.10;99.90;;;;;;5128866;28;20542;-63
2021/04/19 03:31:32;;;;;;;146.17;133.73;;;10.20;99.90;;;;;;5131030;27;20623;-64
2021/04/19 03:34:02;;;;;;;133.87;122.27;;;10.20;99.90;;;;;;5120482;28;20454;-63
2021/04/19 03:36:33;;;;;;;154.93;142.37;;;10.10;99.90;;;;;;5119782;28;20454;-63
2021/04/19 03:39:00;;;;;;;176.03;162.73;;;10.10;99.90;;;;;;5125085;28;20440;-63
2021/04/19 03:41:27;;;;;;;166.30;153.60;;;10.20;99.90;;;;;;5132211;28;20436;-63
2021/04/19 03:43:59;;;;;;;168.83;156.50;;;10.20;99.90;;;;;;5127692;28;20799;-62
2021/04/19 03:46:28;;;;;;;136.03;125.13;;;10.20;99.90;;;;;;5131852;28;20452;-62
2021/04/19 03:48:59;;;;;;;164.47;152.40;;;10.10;99.90;;;;;;5133005;28;20940;-63
2021/04/19 03:51:26;;;;;;;172.87;160.23;;;10.10;99.90;;;;;;5126202;28;20478;-63
2021/04/19 03:53:54;;;;;;;242.83;228.43;;;10.20;99.90;;;;;;5114775;28;20539;-63
2021/04/19 03:56:22;;;;;;;312.53;295.17;;;10.20;99.90;;;;;;5132197;28;20469;-63
2021/04/19 03:58:51;;;;;;;179.47;167.47;;;10.30;99.90;;;;;;5129613;28;20866;-62
2021/04/19 04:01:19;;;;;;;200.27;187.60;;;10.30;99.90;;;;;;5112160;28;20460;-63
2021/04/19 04:03:48;;;;;;;255.03;240.07;;;10.20;99.90;;;;;;5125554;28;20467;-64
2021/04/19 04:06:17;;;;;;;172.80;160.47;;;10.30;99.90;;;;;;5114738;28;20835;-62
2021/04/19 04:08:44;;;;;;;177.67;165.53;;;10.30;99.90;;;;;;5116408;27;20553;-62
2021/04/19 04:11:11;;;;;;;148.03;137.23;;;10.30;99.90;;;;;;5135053;27;20455;-63
2021/04/19 04:13:38;;;;;;;191.77;178.37;;;10.30;99.90;;;;;;5136413;27;20468;-63
2021/04/19 04:16:04;;;;;;;146.00;134.87;;;10.30;99.90;;;;;;5134832;27;20483;-62
2021/04/19 04:18:31;;;;;;;114.23;104.10;;;10.20;99.90;;;;;;5136181;27;20519;-62
2021/04/19 04:20:58;;;;;;;174.13;162.00;;;10.30;99.90;;;;;;5129930;27;20440;-62
2021/04/19 04:23:25;;;;;;;149.90;138.60;;;10.30;99.90;;;;;;5135791;27;20459;-62
2021/04/19 04:25:52;;;;;;;199.50;186.53;;;10.30;99.90;;;;;;5135291;27;20547;-63
2021/04/19 04:28:18;;;;;;;262.60;246.90;;;10.30;99.90;;;;;;5123933;27;20451;-63
2021/04/19 04:30:44;;;;;;;157.23;145.07;;;10.20;99.90;;;;;;5125756;27;20497;-63
2021/04/19 04:33:11;;;;;;;193.67;180.27;;;10.20;99.90;;;;;;5125580;27;20540;-63
2021/04/19 04:35:38;;;;;;;182.43;169.60;;;10.30;99.90;;;;;;5115013;28;21059;-62
2021/04/19 04:38:05;;;;;;;127.20;116.90;;;10.30;99.90;;;;;;5122787;27;20861;-62
2021/04/19 04:40:33;;;;;;;171.57;159.37;;;10.30;99.90;;;;;;5132251;27;20880;-63
2021/04/19 04:43:03;;;;;;;137.13;126.65;;;10.30;99.90;;;;;;5134770;27;20520;-62
2021/04/19 04:45:30;;;;;;;244.40;229.07;;;10.30;99.90;;;;;;5131292;27;20294;-63
2021/04/19 04:48:00;;;;;;;138.07;127.13;;;10.40;99.90;;;;;;5115174;27;20445;-65
2021/04/19 04:50:34;;;;;;;140.43;131.93;;;10.40;99.90;;;;;;5134659;27;20451;-47
2021/04/19 04:53:07;;;;;;;372.13;353.20;;;12.30;99.90;;;;;;5135289;27;20432;-49
2021/04/19 04:55:36;;;;;;;587.27;556.13;;;12.50;99.90;;;;;;5132015;27;20977;-64
2021/04/19 04:58:05;;;;;;;242.20;227.30;;;12.50;99.90;;;;;;5130674;27;20440;-63
2021/04/19 05:00:32;;;;;;;293.03;276.33;;;12.10;99.90;;;;;;5116286;27;20453;-62
2021/04/19 05:03:00;;;;;;;265.00;249.53;;;11.90;99.90;;;;;;5114443;28;20449;-62
2021/04/19 05:05:28;;;;;;;339.20;320.93;;;11.60;99.90;;;;;;5114672;27;20469;-63
2021/04/19 05:07:56;;;;;;;220.57;207.17;;;11.60;99.90;;;;;;5123507;27;20547;-63
2021/04/19 05:10:23;;;;;;;209.00;195.93;;;11.60;99.90;;;;;;5133493;27;20479;-63
2021/04/19 05:12:49;;;;;;;354.20;335.23;;;11.60;99.90;;;;;;5133423;27;20483;-62
2021/04/19 05:15:16;;;;;;;225.27;211.27;;;11.50;99.90;;;;;;5132412;27;20468;-64
2021/04/19 05:17:43;;;;;;;250.43;235.57;;;11.50;99.90;;;;;;5126905;27;20971;-62
2021/04/19 05:20:12;;;;;;;225.90;211.63;;;11.40;99.90;;;;;;5121325;27;20509;-64
2021/04/19 05:22:39;;;;;;;212.53;198.80;;;11.30;99.90;;;;;;5134340;27;20484;-64
2021/04/19 05:25:06;;;;;;;196.57;183.13;;;11.10;99.90;;;;;;5134964;27;20499;-64
2021/04/19 05:27:34;;;;;;;352.03;332.63;;;11.10;99.90;;;;;;5134400;27;20448;-64
2021/04/19 05:30:01;;;;;;;173.47;161.13;;;11.10;99.90;;;;;;5134217;27;20452;-64
2021/04/19 05:32:28;;;;;;;216.97;203.27;;;11.10;99.90;;;;;;5129734;27;20806;-62
2021/04/19 05:34:56;;;;;;;253.23;237.57;;;11.10;99.90;;;;;;5129599;27;20475;-63
2021/04/19 05:37:24;;;;;;;156.27;144.33;;;11.00;99.90;;;;;;5128133;27;20448;-64
2021/04/19 05:39:51;;;;;;;126.97;116.43;;;11.10;99.90;;;;;;5127181;27;20445;-64
2021/04/19 05:42:17;;;;;;;152.43;140.77;;;11.00;99.90;;;;;;5128980;27;20853;-63
2021/04/19 05:44:45;;;;;;;190.33;176.97;;;11.00;99.90;;;;;;5132630;27;20452;-65
2021/04/19 05:47:13;;;;;;;155.53;143.17;;;10.90;99.90;;;;;;5133022;27;20447;-63
2021/04/19 05:49:39;;;;;;;201.50;188.07;;;10.90;99.90;;;;;;5132704;27;20532;-62
2021/04/19 05:52:08;;;;;;;244.87;229.40;;;10.90;99.90;;;;;;5132698;27;20489;-63
2021/04/19 05:54:36;;;;;;;166.73;154.30;;;10.90;99.90;;;;;;5132520;27;20476;-63
2021/04/19 05:57:20;;;;;;;233.17;218.80;;;10.90;99.90;;;;;;5131404;27;20536;-64
2021/04/19 05:59:57;;;;;;;231.97;216.97;;;10.90;99.90;;;;;;5127944;27;20438;-63
2021/04/19 06:02:32;;;;;;;206.97;193.23;;;10.90;99.90;;;;;;5128064;27;20452;-61
2021/04/19 06:05:03;;;;;;;387.87;367.67;;;11.00;99.90;;;;;;5117199;27;20879;-63
2021/04/19 06:09:34;;;;;;;198.53;184.63;;;11.00;99.90;;;;;;5109339;27;20572;-62
2021/04/19 06:12:06;;;;;;;272.00;255.63;;;11.00;99.90;;;;;;5107356;28;20536;-60
2021/04/19 06:14:36;;;;;;;189.27;175.73;;;11.00;99.90;;;;;;5105193;28;20473;-60
2021/04/19 06:17:03;;;;;;;155.53;143.23;;;10.90;99.90;;;;;;5107857;28;20452;-61
2021/04/19 06:19:30;;;;;;;177.67;164.23;;;10.90;99.90;;;;;;5106315;28;20445;-61
2021/04/19 06:21:57;;;;;;;278.67;261.30;;;11.00;99.90;;;;;;5107338;28;20550;-63
2021/04/19 06:24:23;;;;;;;193.23;179.47;;;11.00;99.90;;;;;;5105736;28;20532;-61
2021/04/19 06:26:51;;;;;;;203.60;189.00;;;11.00;99.90;;;;;;5108184;28;20456;-64
2021/04/19 06:29:26;;;;;;;325.17;306.47;;;11.00;99.90;;;;;;5107749;28;20568;-62
2021/04/19 06:31:52;;;;;;;239.70;223.93;;;11.10;99.90;;;;;;5110139;28;20992;-61
2021/04/19 06:34:19;;;;;;;369.97;349.87;;;11.10;99.90;;;;;;5109519;28;20450;-61
2021/04/19 06:36:47;;;;;;;280.57;263.97;;;11.20;99.90;;;;;;5110787;28;20868;-61
2021/04/19 06:39:15;;;;;;;305.70;287.57;;;11.20;99.90;;;;;;5108289;28;20476;-60
2021/04/19 06:41:45;;;;;;;320.10;299.77;;;11.30;99.90;;;;;;5110312;28;20463;-60
2021/04/19 06:44:16;;;;;;;416.20;393.97;;;11.50;99.90;;;;;;5106951;28;20481;-60
2021/04/19 06:46:47;;;;;;;290.80;273.53;;;11.80;99.90;;;;;;5106635;28;20477;-60
2021/04/19 06:49:14;;;;;;;376.13;355.47;;;11.90;99.90;;;;;;5106111;28;20505;-65
2021/04/19 06:51:41;;;;;;;238.33;222.00;;;12.30;99.90;;;;;;5106651;28;20457;-62
2021/04/19 06:54:09;;;;;;;237.00;222.43;;;12.20;99.90;;;;;;5106521;28;20547;-61
2021/04/19 06:56:38;;;;;;;335.70;317.67;;;12.20;99.90;;;;;;5106037;28;20502;-61
2021/04/19 06:59:05;;;;;;;424.63;401.33;;;12.20;99.90;;;;;;5099306;28;20458;-62
2021/04/19 07:01:33;;;;;;;263.30;247.17;;;12.50;99.90;;;;;;5106681;28;20457;-61
2021/04/19 07:04:01;;;;;;;577.13;547.73;;;12.60;99.90;;;;;;5105206;28;20513;-61
2021/04/19 07:06:31;;;;;;;443.20;419.17;;;12.70;99.90;;;;;;5097117;28;20969;-61
2021/04/19 07:09:03;;;;;;;297.80;281.63;;;12.50;99.90;;;;;;5106285;28;20564;-61
2021/04/19 07:11:33;;;;;;;452.87;429.07;;;12.40;99.90;;;;;;5106430;28;20454;-61
2021/04/19 07:14:01;;;;;;;810.60;759.93;;;12.40;99.90;;;;;;5106605;28;20544;-61
2021/04/19 07:16:27;;;;;;;551.23;520.53;;;12.40;99.90;;;;;;5106933;28;20448;-61
2021/04/19 07:18:54;;;;;;;770.97;723.57;;;12.50;99.90;;;;;;5106156;28;20453;-60
2021/04/19 07:21:21;;;;;;;679.33;638.27;;;12.40;99.90;;;;;;5093556;28;20512;-61
2021/04/19 07:23:47;;;;;;;545.53;511.17;;;12.40;99.90;;;;;;5093479;28;20477;-61
2021/04/19 07:26:14;;;;;;;817.27;768.97;;;12.30;99.90;;;;;;5092873;28;20499;-62
2021/04/19 07:28:40;;;;;;;642.67;604.83;;;12.20;99.90;;;;;;5089258;28;20483;-61
2021/04/19 07:31:09;;;;;;;814.30;764.87;;;12.10;99.90;;;;;;5082116;28;20770;-61
2021/04/19 07:33:36;;;;;;;658.07;623.13;;;12.20;99.90;;;;;;5082989;28;20457;-61
2021/04/19 07:36:25;;;;;;;849.93;793.83;;;12.10;99.90;;;;;;5092932;28;20442;-62
2021/04/19 07:38:53;;;;;;;231.83;217.97;;;12.10;99.90;;;;;;5093409;28;20939;-61
2021/04/19 07:41:20;;;;;;;1046.80;971.83;;;12.10;99.90;;;;;;5087862;28;20451;-62
2021/04/19 07:43:48;;;;;;;818.92;769.45;;;12.30;99.90;;;;;;5092300;28;20453;-62
2021/04/19 07:46:17;;;;;;;939.50;880.93;;;12.30;99.90;;;;;;5092210;28;20193;-63
2021/04/19 07:48:46;;;;;;;1007.87;941.63;;;12.40;99.90;;;;;;5093419;28;20486;-62
2021/04/19 07:51:40;;;;;;;834.27;779.47;;;12.30;99.90;;;;;;5094108;28;20453;-63
2021/04/19 07:54:20;;;;;;;905.20;849.23;;;12.60;99.90;;;;;;5054000;28;20462;-59
2021/04/19 07:57:05;;;;;;;956.43;889.97;;;12.90;99.90;;;;;;5092362;28;20446;-61
2021/04/19 07:59:33;;;;;;;966.27;900.63;;;13.00;99.90;;;;;;5090962;28;20486;-59
2021/04/19 08:02:01;;;;;;;973.03;910.50;;;13.10;99.90;;;;;;5091841;28;20469;-61
2021/04/19 08:04:28;;;;;;;1018.97;951.07;;;13.30;99.90;;;;;;5091796;28;20460;-63
2021/04/19 08:06:55;;;;;;;1144.30;999.90;;;13.40;99.90;;;;;;5083765;28;20537;-61
2021/04/19 08:09:25;;;;;;;1135.70;999.90;;;13.20;99.90;;;;;;5084059;28;21010;-66
2021/04/19 08:11:57;;;;;;;893.93;832.83;;;13.60;99.90;;;;;;5092168;28;20887;-63
2021/04/19 08:14:26;;;;;;;1110.63;999.90;;;13.80;99.90;;;;;;5092135;28;20454;-63
2021/04/19 08:17:07;;;;;;;932.10;868.00;;;14.00;99.90;;;;;;5090836;28;20442;-63
2021/04/19 08:19:35;;;;;;;870.33;813.57;;;14.40;99.90;;;;;;5088853;28;20871;-61
2021/04/19 08:22:20;;;;;;;992.57;924.30;;;15.30;99.90;;;;;;5087957;28;20512;-63
2021/04/19 08:24:48;;;;;;;961.20;900.27;;;16.00;99.90;;;;;;5080439;28;20489;-62
2021/04/19 08:27:21;;;;;;;957.07;896.20;;;16.20;99.90;;;;;;5091211;28;20450;-63
2021/04/19 08:29:49;;;;;;;756.60;714.33;;;16.30;99.90;;;;;;5090236;28;20446;-66
2021/04/19 08:32:17;;;;;;;243.13;229.83;;;16.40;99.90;;;;;;5090924;28;20448;-63
2021/04/19 08:34:44;;;;;;;142.03;133.30;;;16.40;99.90;;;;;;5090955;28;20464;-63
2021/04/19 08:37:11;;;;;;;6.30;2.40;;;16.90;99.90;;;;;;5091911;28;20482;-62
2021/04/19 08:39:39;;;;;;;5.10;1.80;;;17.70;99.90;;;;;;5089890;28;20445;-50
2021/04/19 08:42:06;;;;;;;6.13;1.63;;;19.00;99.90;;;;;;5091237;28;20596;-48
2021/04/19 08:44:35;;;;;;;5.23;1.80;;;20.00;99.90;;;;;;5090957;28;20822;-55
2021/04/19 08:47:02;;;;;;;4.70;1.80;;;20.60;99.90;;;;;;5091678;28;20537;-49
2021/04/19 08:49:30;;;;;;;4.77;1.80;;;21.10;99.90;;;;;;5089848;28;20486;-49
2021/04/19 08:51:57;;;;;;;5.30;2.42;;;21.80;99.90;;;;;;5087734;28;20813;-61
2021/04/19 08:54:23;;;;;;;4.50;2.10;;;22.40;99.90;;;;;;5090671;28;20202;-61
2021/04/19 08:56:51;;;;;;;4.53;2.33;;;23.70;99.90;;;;;;5090981;28;20450;-63
2021/04/19 08:59:19;;;;;;;4.77;1.93;;;25.20;99.80;;;;;;5089987;28;20458;-63
2021/04/19 09:01:46;;;;;;;4.73;2.27;;;26.40;99.90;;;;;;5091322;28;20951;-63
2021/04/19 09:04:13;;;;;;;4.43;2.07;;;27.00;93.30;;;;;;5090657;28;20450;-61
2021/04/19 09:06:40;;;;;;;5.90;2.63;;;24.90;89.50;;;;;;5091054;28;20889;-62
2021/04/19 09:09:07;;;;;;;4.93;2.13;;;23.20;90.60;;;;;;5090217;28;20486;-60
2021/04/19 09:11:33;;;;;;;4.93;2.77;;;22.10;92.50;;;;;;5090404;28;20525;-63
2021/04/19 09:14:05;;;;;;;5.40;2.43;;;19.80;95.90;;;;;;5090195;28;20442;-60
2021/04/19 09:16:36;;;;;;;8.10;2.60;;;18.90;98.40;;;;;;5090524;28;20820;-61
2021/04/19 09:19:04;;;;;;;8.80;3.30;;;17.80;99.90;;;;;;5090250;28;20507;-62
2021/04/19 09:21:35;;;;;;;5.70;2.70;;;17.20;99.90;;;;;;5090751;28;20453;-63
2021/04/19 09:24:02;;;;;;;6.20;3.10;;;17.60;99.90;;;;;;5090651;28;20454;-61
2021/04/19 09:26:47;;;;;;;5.30;2.80;;;17.60;99.90;;;;;;5090881;28;20533;-63
2021/04/19 09:29:46;;;;;;;6.73;2.80;;;17.50;99.90;;;;;;5077566;28;20631;-63
2021/04/19 09:32:24;;;;;;;7.63;2.80;;;17.20;99.90;;;;;;5089409;28;20541;-64
2021/04/19 09:34:53;;;;;;;5.47;2.37;;;17.40;99.90;;;;;;5090520;28;20460;-63
2021/04/19 09:37:22;;;;;;;4.53;1.93;;;17.30;99.90;;;;;;5091172;28;20457;-61
2021/04/19 09:39:51;;;;;;;5.93;2.33;;;17.60;99.90;;;;;;5090052;28;20975;-61
2021/04/19 09:42:39;;;;;;;5.03;2.60;;;17.70;99.90;;;;;;5090506;28;21007;-62
2021/04/19 09:45:07;;;;;;;6.17;3.10;;;17.80;99.90;;;;;;5088557;28;20489;-62
2021/04/19 09:47:49;;;;;;;5.80;2.70;;;18.60;99.90;;;;;;5078084;28;20462;-62
2021/04/19 09:50:20;;;;;;;5.33;2.37;;;18.60;99.90;;;;;;5089986;28;20580;-63
2021/04/19 09:52:48;;;;;;;5.83;3.37;;;19.20;99.90;;;;;;5090074;28;20529;-64
2021/04/19 09:55:14;;;;;;;6.60;3.30;;;19.40;99.90;;;;;;5091271;28;20477;-63
2021/04/19 09:57:41;;;;;;;5.40;3.00;;;20.50;99.90;;;;;;5090086;28;20610;-61
2021/04/19 10:00:10;;;;;;;7.70;3.40;;;23.20;99.90;;;;;;5092582;28;20441;-63
2021/04/19 10:02:40;;;;;;;6.23;3.00;;;24.50;96.70;;;;;;5087415;28;20552;-61
2021/04/19 10:05:09;;;;;;;4.97;2.70;;;26.40;92.10;;;;;;5089036;28;20470;-64
2021/04/19 10:07:41;;;;;;;5.30;2.90;;;27.50;88.40;;;;;;5088862;28;20458;-62
2021/04/19 10:10:10;;;;;;;4.87;2.50;;;28.90;83.90;;;;;;5090497;28;20533;-65
2021/04/19 10:12:44;;;;;;;6.80;3.23;;;29.00;70.10;;;;;;5090376;28;20519;-62
2021/04/19 10:15:17;;;;;;;6.90;3.30;;;27.10;69.80;;;;;;5090703;28;20548;-63
2021/04/19 10:17:44;;;;;;;5.67;3.50;;;24.00;70.60;;;;;;5083414;28;20923;-62
2021/04/19 10:20:16;;;;;;;5.73;3.23;;;22.80;73.10;;;;;;5084068;28;20875;-64
2021/04/19 10:22:43;;;;;;;5.17;2.90;;;22.60;77.40;;;;;;5089558;28;20934;-64
2021/04/19 10:25:10;;;;;;;5.33;2.73;;;23.10;78.30;;;;;;5089917;28;20455;-62
2021/04/19 10:27:36;;;;;;;6.57;3.53;;;22.40;77.20;;;;;;5090477;28;20466;-62
2021/04/19 10:30:11;;;;;;;5.30;3.00;;;21.30;81.40;;;;;;5090459;28;20446;-63
2021/04/19 10:32:39;;;;;;;7.67;4.13;;;20.70;85.50;;;;;;5089760;28;20446;-63
2021/04/19 10:35:30;;;;;;;6.80;4.30;;;20.00;88.20;;;;;;5090025;28;20477;-64
2021/04/19 10:37:57;;;;;;;8.20;5.03;;;19.20;92.30;;;;;;5083147;28;20982;-61
2021/04/19 10:40:24;;;;;;;7.90;5.70;;;18.60;97.60;;;;;;5086470;28;21026;-64
2021/04/19 10:42:51;;;;;;;8.37;5.63;;;17.80;99.90;;;;;;5088831;28;20457;-63
2021/04/19 10:45:18;;;;;;;9.47;5.40;;;16.80;99.90;;;;;;5092095;28;20503;-63
2021/04/19 10:47:46;;;;;;;10.20;8.30;;;16.30;99.90;;;;;;5089670;28;20476;-63
2021/04/19 10:50:12;;;;;;;8.63;6.27;;;16.40;99.90;;;;;;5090068;28;20456;-63
2021/04/19 10:52:39;;;;;;;10.00;7.17;;;17.20;99.90;;;;;;5091752;28;20890;-62
2021/04/19 10:55:08;;;;;;;9.43;6.50;;;18.60;99.90;;;;;;5092015;28;20454;-62
2021/04/19 10:57:35;;;;;;;9.20;7.23;;;19.70;99.90;;;;;;5105660;28;20502;-64
2021/04/19 11:00:05;;;;;;;10.03;8.47;;;19.10;99.90;;;;;;5093730;28;20543;-62
2021/04/19 11:02:32;;;;;;;9.93;7.20;;;18.60;99.90;;;;;;5093882;28;20489;-63
2021/04/19 11:05:00;;;;;;;10.63;8.40;;;18.10;99.90;;;;;;5092326;28;20466;-60
2021/04/19 11:07:28;;;;;;;10.83;7.57;;;17.40;99.90;;;;;;5090067;28;20904;-60
2021/04/19 11:10:11;;;;;;;9.17;7.10;;;17.00;99.90;;;;;;5093554;28;20442;-60
2021/04/19 11:12:37;;;;;;;12.60;8.00;;;16.50;99.90;;;;;;5092934;28;20450;-61
2021/04/19 11:15:09;;;;;;;11.70;7.90;;;16.00;99.90;;;;;;5087437;28;20534;-60
2021/04/19 11:17:35;;;;;;;11.73;6.63;;;16.00;99.90;;;;;;5089650;28;20575;-67
2021/04/19 11:20:19;;;;;;;11.53;7.47;;;16.10;99.90;;;;;;5093351;28;20486;-67
2021/04/19 11:22:46;;;;;;;10.77;7.40;;;16.40;99.90;;;;;;5072275;28;20443;-62
2021/04/19 11:25:14;;;;;;;8.83;6.00;;;16.70;99.90;;;;;;5073976;28;20550;-61
2021/04/19 11:27:41;;;;;;;10.17;6.90;;;17.10;99.90;;;;;;5082229;28;20559;-61
2021/04/19 11:30:18;;;;;;;8.87;6.60;;;17.30;99.90;;;;;;5093805;28;20482;-60
2021/04/19 11:32:44;;;;;;;9.80;6.90;;;17.10;99.90;;;;;;5078293;28;20530;-61
2021/04/19 11:35:23;;;;;;;13.43;7.27;;;17.40;99.90;;;;;;5093156;28;20545;-61
2021/04/19 11:37:58;;;;;;;12.40;7.00;;;17.30;99.90;;;;;;5093200;28;20450;-60
2021/04/19 11:40:29;;;;;;;12.37;6.57;;;17.60;99.90;;;;;;5092731;28;20449;-62
2021/04/19 11:42:56;;;;;;;11.23;7.63;;;17.60;99.90;;;;;;5072299;28;20474;-61
2021/04/19 11:45:24;;;;;;;10.33;6.63;;;17.50;99.90;;;;;;5086625;28;20558;-61
2021/04/19 11:47:51;;;;;;;10.27;6.60;;;17.40;99.90;;;;;;5092744;28;20536;-61
2021/04/19 11:50:19;;;;;;;10.37;7.93;;;17.30;99.90;;;;;;5092691;28;20533;-62
2021/04/19 11:52:49;;;;;;;10.70;7.87;;;17.00;99.90;;;;;;5092341;28;20477;-62
2021/04/19 11:55:16;;;;;;;11.47;7.30;;;16.90;99.90;;;;;;5091959;28;20852;-68
2021/04/19 11:57:43;;;;;;;10.30;7.70;;;17.50;99.90;;;;;;5091894;28;20549;-63
2021/04/19 12:00:10;;;;;;;11.63;8.00;;;19.20;99.90;;;;;;5088309;28;20868;-62
2021/04/19 12:02:37;;;;;;;10.37;7.50;;;20.10;99.90;;;;;;5091076;28;20471;-61
2021/04/19 12:05:05;;;;;;;10.30;8.43;;;20.20;99.90;;;;;;5091965;28;20447;-63
2021/04/19 12:07:32;;;;;;;10.60;8.00;;;20.40;99.90;;;;;;5092997;28;20541;-66
2021/04/19 12:09:59;;;;;;;9.87;8.27;;;21.10;99.90;;;;;;5085432;28;20490;-60
2021/04/19 12:12:26;;;;;;;11.30;8.70;;;23.30;99.90;;;;;;5090003;28;20831;-61
2021/04/19 12:14:52;;;;;;;8.90;7.40;;;24.00;96.80;;;;;;5090402;28;20496;-65
2021/04/19 12:17:18;;;;;;;8.37;6.20;;;22.90;93.70;;;;;;5079821;28;20462;-64
2021/04/19 12:19:45;;;;;;;10.17;7.50;;;22.90;94.40;;;;;;5086869;28;20570;-63
2021/04/19 12:22:11;;;;;;;11.20;7.70;;;22.00;94.20;;;;;;5091507;28;20445;-63
2021/04/19 12:24:38;;;;;;;9.80;7.60;;;21.60;93.80;;;;;;5076438;28;20789;-61
2021/04/19 12:27:06;;;;;;;11.13;8.43;;;20.80;94.20;;;;;;5089814;28;20458;-61
2021/04/19 12:29:32;;;;;;;9.33;7.97;;;21.10;97.20;;;;;;5087840;28;20578;-60
2021/04/19 12:31:59;;;;;;;10.30;7.00;;;21.30;94.30;;;;;;5091401;28;20446;-61